createdAt,value
2019-03-20T00:00:59.203Z,19.98
2019-03-20T00:03:27.630Z,16.37
2019-03-20T00:05:56.060Z,16.02
2019-03-20T00:08:24.555Z,12.75
2019-03-20T00:10:52.986Z,15.32
2019-03-20T00:13:21.421Z,11.40
2019-03-20T00:15:49.868Z,15.30
2019-03-20T00:18:18.430Z,10.05
2019-03-20T00:20:46.869Z,12.10
2019-03-20T00:23:15.298Z,14.60
2019-03-20T00:25:43.725Z,15.58
2019-03-20T00:28:31.490Z,14.30
2019-03-20T00:30:59.937Z,15.23
2019-03-20T00:33:28.357Z,17.77
2019-03-20T00:35:56.799Z,13.40
2019-03-20T00:38:25.230Z,12.88
2019-03-20T00:40:53.658Z,12.60
2019-03-20T00:43:22.094Z,10.43
2019-03-20T00:45:50.519Z,11.30
2019-03-20T00:48:38.302Z,9.78
2019-03-20T00:51:06.735Z,11.50
2019-03-20T00:53:35.150Z,9.28
2019-03-20T00:56:03.650Z,9.73
2019-03-20T00:58:32.078Z,10.90
2019-03-20T01:01:00.507Z,11.70
2019-03-20T01:03:29.435Z,10.38
2019-03-20T01:05:57.865Z,16.12
2019-03-20T01:08:26.288Z,9.68
2019-03-20T01:10:54.712Z,8.78
2019-03-20T01:13:23.498Z,10.18
2019-03-20T01:15:52.001Z,10.32
2019-03-20T01:18:22.393Z,10.18
2019-03-20T01:20:50.578Z,11.63
2019-03-20T01:23:19.011Z,15.45
2019-03-20T01:25:47.441Z,13.83
2019-03-20T01:28:15.870Z,11.05
2019-03-20T01:30:44.386Z,11.78
2019-03-20T01:33:13.651Z,10.48
2019-03-20T01:35:42.422Z,13.45
2019-03-20T01:38:11.223Z,12.73
2019-03-20T01:40:40.517Z,14.33
2019-03-20T01:43:09.371Z,12.75
2019-03-20T01:45:38.022Z,14.95
2019-03-20T01:48:06.641Z,13.28
2019-03-20T01:50:35.060Z,10.80
2019-03-20T01:53:03.554Z,9.70
2019-03-20T01:55:31.986Z,8.68
2019-03-20T01:58:00.423Z,12.60
2019-03-20T02:00:48.184Z,11.80
2019-03-20T02:03:16.618Z,8.23
2019-03-20T02:05:45.066Z,7.95
2019-03-20T02:08:13.514Z,9.95
2019-03-20T02:10:41.934Z,9.25
2019-03-20T02:13:10.398Z,10.50
2019-03-20T02:15:39.752Z,14.05
2019-03-20T02:18:08.332Z,8.80
2019-03-20T02:20:36.771Z,10.80
2019-03-20T02:23:05.312Z,10.08
2019-03-20T02:25:33.802Z,9.63
2019-03-20T02:28:03.622Z,10.88
2019-03-20T02:30:32.077Z,8.33
2019-03-20T02:33:00.637Z,9.85
2019-03-20T02:35:29.127Z,11.95
2019-03-20T02:37:57.566Z,8.80
2019-03-20T02:40:26.014Z,10.50
2019-03-20T02:42:54.465Z,11.10
2019-03-20T02:45:24.419Z,11.25
2019-03-20T02:47:52.843Z,7.80
2019-03-20T02:50:21.291Z,9.75
2019-03-20T02:52:49.711Z,12.68
2019-03-20T02:55:18.341Z,8.45
2019-03-20T02:57:46.838Z,10.28
2019-03-20T03:00:16.391Z,8.90
2019-03-20T03:02:44.836Z,10.82
2019-03-20T03:05:14.110Z,8.18
2019-03-20T03:07:42.793Z,9.08
2019-03-20T03:10:16.429Z,14.45
2019-03-20T03:12:44.990Z,8.93
2019-03-20T03:15:14.642Z,13.15
2019-03-20T03:17:43.143Z,15.00
2019-03-20T03:20:13.896Z,9.30
2019-03-20T03:22:42.375Z,9.18
2019-03-20T03:25:12.153Z,8.23
2019-03-20T03:27:40.632Z,11.90
2019-03-20T03:30:17.845Z,10.93
2019-03-20T03:32:46.688Z,10.43
2019-03-20T03:35:17.966Z,11.55
2019-03-20T03:37:48.500Z,13.38
2019-03-20T03:40:20.555Z,17.12
2019-03-20T03:42:49.070Z,15.85
2019-03-20T03:45:17.810Z,15.43
2019-03-20T03:47:46.335Z,14.85
2019-03-20T03:50:15.055Z,18.20
2019-03-20T03:52:43.671Z,14.80
2019-03-20T03:55:13.421Z,16.77
2019-03-20T03:57:42.430Z,20.77
2019-03-20T04:00:16.010Z,20.15
2019-03-20T04:02:44.513Z,18.80
2019-03-20T04:05:13.390Z,21.65
2019-03-20T04:07:43.471Z,20.45
2019-03-20T04:10:16.270Z,19.82
2019-03-20T04:12:44.760Z,22.27
2019-03-20T04:15:14.407Z,22.50
2019-03-20T04:17:44.343Z,28.65
2019-03-20T04:20:15.211Z,21.70
2019-03-20T04:22:43.675Z,27.98
2019-03-20T04:25:12.684Z,31.02
2019-03-20T04:27:41.386Z,26.52
2019-03-20T04:30:15.734Z,26.07
2019-03-20T04:32:44.718Z,31.45
2019-03-20T04:35:13.600Z,30.52
2019-03-20T04:37:42.266Z,25.88
2019-03-20T04:40:12.454Z,26.30
2019-03-20T04:42:43.628Z,29.75
2019-03-20T04:45:13.205Z,26.50
2019-03-20T04:47:41.822Z,27.82
2019-03-20T04:50:12.277Z,31.93
2019-03-20T04:52:40.820Z,30.08
2019-03-20T04:55:09.756Z,36.15
2019-03-20T04:57:38.209Z,27.30
2019-03-20T05:00:34.653Z,29.57
2019-03-20T05:03:04.871Z,31.97
2019-03-20T05:05:33.398Z,34.78
2019-03-20T05:08:02.910Z,36.70
2019-03-20T05:10:31.354Z,37.15
2019-03-20T05:12:59.805Z,37.90
2019-03-20T05:15:29.202Z,35.03
2019-03-20T05:17:57.631Z,34.50
2019-03-20T05:20:26.068Z,37.73
2019-03-20T05:22:54.502Z,36.05
2019-03-20T05:25:22.930Z,40.03
2019-03-20T05:27:51.382Z,38.78
2019-03-20T05:30:19.798Z,35.58
2019-03-20T05:32:48.246Z,35.68
2019-03-20T05:35:16.689Z,37.83
2019-03-20T05:37:45.119Z,40.03
2019-03-20T05:40:14.889Z,42.15
2019-03-20T05:42:43.419Z,40.92
2019-03-20T05:45:14.077Z,42.98
2019-03-20T05:47:42.524Z,42.53
2019-03-20T05:50:12.990Z,44.10
2019-03-20T05:52:41.441Z,42.58
2019-03-20T05:55:10.048Z,44.05
2019-03-20T05:57:38.614Z,46.37
2019-03-20T06:00:10.133Z,45.45
2019-03-20T06:02:38.580Z,46.45
2019-03-20T06:05:07.864Z,45.43
2019-03-20T06:07:36.290Z,45.65
2019-03-20T06:10:25.582Z,44.40
2019-03-20T06:12:54.013Z,51.18
2019-03-20T06:15:24.525Z,44.73
2019-03-20T06:17:52.619Z,49.60
2019-03-20T06:20:21.044Z,50.15
2019-03-20T06:22:49.487Z,54.40
2019-03-20T06:25:21.141Z,51.60
2019-03-20T06:27:48.114Z,48.38
2019-03-20T06:30:18.482Z,52.33
2019-03-20T06:32:47.003Z,47.20
2019-03-20T06:35:15.525Z,52.00
2019-03-20T06:37:44.017Z,49.35
2019-03-20T06:40:14.454Z,48.68
2019-03-20T06:42:42.958Z,49.18
2019-03-20T06:45:14.477Z,50.67
2019-03-20T06:47:42.937Z,54.00
2019-03-20T06:50:38.194Z,54.42
2019-03-20T06:53:06.643Z,57.15
2019-03-20T06:55:35.082Z,50.17
2019-03-20T06:58:03.594Z,48.55
2019-03-20T07:00:40.842Z,53.55
2019-03-20T07:03:21.056Z,51.55
2019-03-20T07:06:13.247Z,54.88
2019-03-20T07:09:02.625Z,53.38
2019-03-20T07:11:34.142Z,55.65
2019-03-20T07:14:02.575Z,52.53
2019-03-20T07:16:31.032Z,58.60
2019-03-20T07:18:59.455Z,61.63
2019-03-20T07:21:27.904Z,56.40
2019-03-20T07:23:56.345Z,55.43
2019-03-20T07:26:24.782Z,49.48
2019-03-20T07:28:53.213Z,54.90
2019-03-20T07:31:21.650Z,51.33
2019-03-20T07:33:50.113Z,54.75
2019-03-20T07:36:18.548Z,57.93
2019-03-20T07:38:47.001Z,58.00
2019-03-20T07:41:15.450Z,58.95
2019-03-20T07:43:43.883Z,55.98
2019-03-20T07:46:12.318Z,54.08
2019-03-20T07:48:40.870Z,59.70
2019-03-20T07:51:09.366Z,55.75
2019-03-20T07:53:37.822Z,57.10
2019-03-20T07:56:06.333Z,57.45
2019-03-20T07:58:34.772Z,56.98
2019-03-20T08:01:03.297Z,59.05
2019-03-20T08:03:31.726Z,53.60
2019-03-20T08:06:00.445Z,56.08
2019-03-20T08:08:28.886Z,54.70
2019-03-20T08:10:57.356Z,58.38
2019-03-20T08:13:25.913Z,53.23
2019-03-20T08:15:54.350Z,53.20
2019-03-20T08:18:22.809Z,58.20
2019-03-20T08:20:51.225Z,55.03
2019-03-20T08:23:19.677Z,55.95
2019-03-20T08:25:48.130Z,58.78
2019-03-20T08:28:16.563Z,55.67
2019-03-20T08:30:44.990Z,54.30
2019-03-20T08:33:13.427Z,57.35
2019-03-20T08:35:41.876Z,55.20
2019-03-20T08:38:18.120Z,55.83
2019-03-20T08:40:40.495Z,54.63
2019-03-20T08:43:08.945Z,56.33
2019-03-20T08:45:37.389Z,56.92
2019-03-20T08:48:05.893Z,55.20
2019-03-20T08:50:34.348Z,57.93
2019-03-20T08:53:02.789Z,55.70
2019-03-20T08:55:31.226Z,56.13
2019-03-20T08:57:59.673Z,52.35
2019-03-20T09:00:28.245Z,50.30
2019-03-20T09:02:56.678Z,51.92
2019-03-20T09:05:25.138Z,48.92
2019-03-20T09:07:53.555Z,51.83
2019-03-20T09:10:25.077Z,52.50
2019-03-20T09:12:53.520Z,55.35
2019-03-20T09:15:22.178Z,54.65
2019-03-20T09:17:50.702Z,51.05
2019-03-20T09:20:21.125Z,53.02
2019-03-20T09:22:49.559Z,48.90
2019-03-20T09:25:27.405Z,55.92
2019-03-20T09:27:55.835Z,51.70
2019-03-20T09:30:26.419Z,53.23
2019-03-20T09:32:55.050Z,52.08
2019-03-20T09:35:23.570Z,54.90
2019-03-20T09:37:52.791Z,52.85
2019-03-20T09:40:28.725Z,50.92
2019-03-20T09:42:57.173Z,49.00
2019-03-20T09:45:25.986Z,49.70
2019-03-20T09:47:54.495Z,54.93
2019-03-20T09:50:29.389Z,49.63
2019-03-20T09:52:57.805Z,52.05
2019-03-20T09:55:26.255Z,53.78
2019-03-20T09:57:54.695Z,54.08
2019-03-20T10:00:30.787Z,51.37
2019-03-20T10:03:00.971Z,52.23
2019-03-20T10:05:31.337Z,57.53
2019-03-20T10:07:59.770Z,50.50
2019-03-20T10:10:31.033Z,49.25
2019-03-20T10:12:59.501Z,51.58
2019-03-20T10:15:31.810Z,55.73
2019-03-20T10:18:00.242Z,53.05
2019-03-20T10:20:29.112Z,51.45
2019-03-20T10:22:58.173Z,55.03
2019-03-20T10:25:26.918Z,51.53
2019-03-20T10:27:55.325Z,57.15
2019-03-20T10:30:26.872Z,51.92
2019-03-20T10:32:55.455Z,53.30
2019-03-20T10:35:24.064Z,49.80
2019-03-20T10:37:52.499Z,54.35
2019-03-20T10:40:22.879Z,53.00
2019-03-20T10:42:51.465Z,51.53
2019-03-20T10:45:20.720Z,54.00
2019-03-20T10:47:52.771Z,54.73
2019-03-20T10:50:27.422Z,52.05
2019-03-20T10:52:55.859Z,56.23
2019-03-20T10:55:24.379Z,55.38
2019-03-20T10:57:53.021Z,61.85
2019-03-20T11:00:29.770Z,54.63
2019-03-20T11:02:58.969Z,52.23
2019-03-20T11:05:27.398Z,58.78
2019-03-20T11:07:55.861Z,54.48
2019-03-20T11:10:28.065Z,54.95
2019-03-20T11:12:56.698Z,56.58
2019-03-20T11:15:26.302Z,60.20
2019-03-20T11:17:54.816Z,53.23
2019-03-20T11:20:24.089Z,56.45
2019-03-20T11:22:52.511Z,57.08
2019-03-20T11:25:21.892Z,57.60
2019-03-20T11:27:50.395Z,54.48
2019-03-20T11:30:21.241Z,55.35
2019-03-20T11:32:49.688Z,60.78
2019-03-20T11:35:18.252Z,57.33
2019-03-20T11:37:46.747Z,57.65
2019-03-20T11:40:20.902Z,54.42
2019-03-20T11:42:49.420Z,62.80
2019-03-20T11:45:18.012Z,58.35
2019-03-20T11:47:46.437Z,56.02
2019-03-20T11:50:26.220Z,58.55
2019-03-20T11:52:54.726Z,60.03
2019-03-20T11:55:23.233Z,64.42
2019-03-20T11:57:51.657Z,56.80
2019-03-20T12:00:21.343Z,61.18
2019-03-20T12:02:49.858Z,62.15
2019-03-20T12:05:18.324Z,60.52
2019-03-20T12:07:46.818Z,64.32
2019-03-20T12:10:21.000Z,67.32
2019-03-20T12:12:49.533Z,63.48
2019-03-20T12:15:18.103Z,66.33
2019-03-20T12:17:46.548Z,62.40
2019-03-20T12:20:25.606Z,67.05
2019-03-20T12:22:54.394Z,69.05
2019-03-20T12:25:28.974Z,73.50
2019-03-20T12:27:58.020Z,74.60
2019-03-20T12:30:28.415Z,74.50
2019-03-20T12:32:56.923Z,73.78
2019-03-20T12:35:33.743Z,75.15
2019-03-20T12:38:13.376Z,91.50
2019-03-20T12:40:32.646Z,75.12
2019-03-20T12:43:01.082Z,80.15
2019-03-20T12:45:31.260Z,80.95
2019-03-20T12:47:59.705Z,73.52
2019-03-20T12:50:28.158Z,78.28
2019-03-20T12:52:56.676Z,72.08
2019-03-20T12:55:25.172Z,74.97
2019-03-20T12:57:53.629Z,79.87
2019-03-20T13:00:27.539Z,73.37
2019-03-20T13:02:56.142Z,79.70
2019-03-20T13:05:24.584Z,73.40
2019-03-20T13:07:53.047Z,76.02
2019-03-20T13:10:22.619Z,75.52
2019-03-20T13:12:51.227Z,68.65
2019-03-20T13:15:27.198Z,77.47
2019-03-20T13:17:56.505Z,75.37
2019-03-20T13:20:25.092Z,74.35
2019-03-20T13:23:02.121Z,75.20
2019-03-20T13:25:30.798Z,71.40
2019-03-20T13:28:00.100Z,77.78
2019-03-20T13:30:34.381Z,71.45
2019-03-20T13:33:02.829Z,77.08
2019-03-20T13:35:31.275Z,76.15
2019-03-20T13:38:00.983Z,72.58
2019-03-20T13:40:29.422Z,74.70
2019-03-20T13:42:57.874Z,77.97
2019-03-20T13:45:27.662Z,78.22
2019-03-20T13:47:56.107Z,78.97
2019-03-20T13:50:24.633Z,79.67
2019-03-20T13:52:53.104Z,75.85
2019-03-20T13:55:21.589Z,78.05
2019-03-20T13:57:50.114Z,75.72
2019-03-20T14:00:20.091Z,75.92
2019-03-20T14:02:48.602Z,80.35
2019-03-20T14:05:17.056Z,75.72
2019-03-20T14:07:45.669Z,82.05
2019-03-20T14:10:25.505Z,80.67
2019-03-20T14:12:52.371Z,82.65
2019-03-20T14:15:21.039Z,86.55
2019-03-20T14:17:49.543Z,84.62
2019-03-20T14:20:26.740Z,81.17
2019-03-20T14:22:55.266Z,88.47
2019-03-20T14:25:23.866Z,81.70
2019-03-20T14:27:52.949Z,87.85
2019-03-20T14:30:29.296Z,87.10
2019-03-20T14:32:57.972Z,85.20
2019-03-20T14:35:26.425Z,84.87
2019-03-20T14:37:54.868Z,89.67
2019-03-20T14:40:35.314Z,86.20
2019-03-20T14:42:56.659Z,91.17
2019-03-20T14:45:25.313Z,91.32
2019-03-20T14:47:53.833Z,91.35
2019-03-20T14:50:27.195Z,87.60
2019-03-20T14:52:55.695Z,85.47
2019-03-20T14:55:24.271Z,88.50
2019-03-20T14:57:52.802Z,82.60
2019-03-20T15:00:28.376Z,79.90
2019-03-20T15:02:57.124Z,86.78
2019-03-20T15:05:25.634Z,94.50
2019-03-20T15:07:54.354Z,87.88
2019-03-20T15:10:47.158Z,84.90
2019-03-20T15:13:15.603Z,90.47
2019-03-20T15:15:52.706Z,89.50
2019-03-20T15:18:21.166Z,96.35
2019-03-20T15:20:49.628Z,88.87
2019-03-20T15:23:18.078Z,91.10
2019-03-20T15:25:46.516Z,91.22
2019-03-20T15:28:14.966Z,88.07
2019-03-20T15:30:43.417Z,93.52
2019-03-20T15:33:11.840Z,93.12
2019-03-20T15:35:40.301Z,92.82
2019-03-20T15:38:08.757Z,91.82
2019-03-20T15:40:37.196Z,95.60
2019-03-20T15:43:05.721Z,101.65
2019-03-20T15:45:34.147Z,91.25
2019-03-20T15:48:02.594Z,92.65
2019-03-20T15:50:31.051Z,102.67
2019-03-20T15:52:59.489Z,100.00
2019-03-20T15:55:51.490Z,100.72
2019-03-20T15:58:20.024Z,101.42
2019-03-20T16:00:48.476Z,94.15
2019-03-20T16:03:23.013Z,95.62
2019-03-20T16:05:51.446Z,98.10
2019-03-20T16:08:20.245Z,106.27
2019-03-20T16:10:48.678Z,103.00
2019-03-20T16:13:17.135Z,107.60
2019-03-20T16:15:45.587Z,105.95
2019-03-20T16:18:14.005Z,104.90
2019-03-20T16:20:42.465Z,104.85
2019-03-20T16:23:10.903Z,106.45
2019-03-20T16:25:39.365Z,94.05
2019-03-20T16:28:07.813Z,109.00
2019-03-20T16:30:36.251Z,103.40
2019-03-20T16:33:11.683Z,104.30
2019-03-20T16:35:40.188Z,105.37
2019-03-20T16:38:08.630Z,100.20
2019-03-20T16:40:37.149Z,106.95
2019-03-20T16:43:06.282Z,115.45
2019-03-20T16:45:35.792Z,107.78
2019-03-20T16:48:05.278Z,109.60
2019-03-20T16:50:33.733Z,118.80
2019-03-20T16:53:02.181Z,121.75
2019-03-20T16:55:30.665Z,124.38
2019-03-20T16:57:59.129Z,131.95
2019-03-20T17:00:36.520Z,137.30
2019-03-20T17:03:05.033Z,136.95
2019-03-20T17:05:33.564Z,129.87
2019-03-20T17:08:02.085Z,135.50
2019-03-20T17:10:36.101Z,144.22
2019-03-20T17:13:05.674Z,125.00
2019-03-20T17:15:41.252Z,138.75
2019-03-20T17:18:09.746Z,131.32
2019-03-20T17:20:38.318Z,148.72
2019-03-20T17:23:07.924Z,136.28
2019-03-20T17:25:36.801Z,131.37
2019-03-20T17:28:06.342Z,122.65
2019-03-20T17:30:39.433Z,129.35
2019-03-20T17:33:13.837Z,132.15
2019-03-20T17:36:01.290Z,129.05
2019-03-20T17:38:29.835Z,131.27
2019-03-20T17:40:58.651Z,128.90
2019-03-20T17:43:27.283Z,123.92
2019-03-20T17:45:55.770Z,133.87
2019-03-20T17:48:24.291Z,130.93
2019-03-20T17:50:52.918Z,135.00
2019-03-20T17:53:21.455Z,135.72
2019-03-20T17:55:49.941Z,141.15
2019-03-20T17:58:18.476Z,133.35
2019-03-20T18:00:48.658Z,131.82
2019-03-20T18:03:17.270Z,139.70
2019-03-20T18:05:45.834Z,139.68
2019-03-20T18:08:14.395Z,133.78
2019-03-20T18:10:42.924Z,136.75
2019-03-20T18:13:11.746Z,124.50
2019-03-20T18:15:40.631Z,131.43
2019-03-20T18:18:09.144Z,127.45
2019-03-20T18:20:38.261Z,137.45
2019-03-20T18:23:07.829Z,134.80
2019-03-20T18:25:36.539Z,129.60
2019-03-20T18:28:05.640Z,139.40
2019-03-20T18:30:54.995Z,138.85
2019-03-20T18:33:25.277Z,128.27
2019-03-20T18:35:53.833Z,127.47
2019-03-20T18:38:22.381Z,125.05
2019-03-20T18:40:51.007Z,132.93
2019-03-20T18:43:19.659Z,138.97
2019-03-20T18:45:48.852Z,127.07
2019-03-20T18:48:17.411Z,130.45
2019-03-20T18:50:50.097Z,128.68
2019-03-20T18:53:18.920Z,132.95
2019-03-20T18:55:48.101Z,131.78
2019-03-20T18:58:16.761Z,135.25
2019-03-20T19:00:45.400Z,133.32
2019-03-20T19:03:19.751Z,137.50
2019-03-20T19:06:02.671Z,127.07
2019-03-20T19:08:31.469Z,142.70
2019-03-20T19:11:19.572Z,123.35
2019-03-20T19:13:48.205Z,124.45
2019-03-20T19:16:16.820Z,130.47
2019-03-20T19:18:46.831Z,134.65
2019-03-20T19:21:15.673Z,129.97
2019-03-20T19:23:44.200Z,133.37
2019-03-20T19:26:12.651Z,121.05
2019-03-20T19:28:44.303Z,130.37
2019-03-20T19:31:12.778Z,134.63
2019-03-20T19:33:41.281Z,131.72
2019-03-20T19:36:09.719Z,133.55
2019-03-20T19:38:38.169Z,125.05
2019-03-20T19:41:08.827Z,131.55
2019-03-20T19:43:36.788Z,125.90
2019-03-20T19:46:06.684Z,130.35
2019-03-20T19:48:35.119Z,129.78
2019-03-20T19:51:22.901Z,126.65
2019-03-20T19:53:51.333Z,132.25
2019-03-20T19:56:20.359Z,134.40
2019-03-20T19:58:48.791Z,137.07
2019-03-20T20:01:17.235Z,124.80
2019-03-20T20:03:47.125Z,133.60
2019-03-20T20:06:15.586Z,129.82
2019-03-20T20:08:44.044Z,135.30
2019-03-20T20:11:13.773Z,129.47
2019-03-20T20:13:42.280Z,132.78
2019-03-20T20:16:10.730Z,130.93
2019-03-20T20:18:39.201Z,133.80
2019-03-20T20:21:09.673Z,135.15
2019-03-20T20:23:38.146Z,134.50
2019-03-20T20:26:06.598Z,131.50
2019-03-20T20:28:35.043Z,133.03
2019-03-20T20:31:03.492Z,131.93
2019-03-20T20:33:31.953Z,130.90
2019-03-20T20:36:00.521Z,129.27
2019-03-20T20:38:29.137Z,125.33
2019-03-20T20:40:57.615Z,129.50
2019-03-20T20:43:26.104Z,130.35
2019-03-20T20:45:54.553Z,127.35
2019-03-20T20:48:23.008Z,127.38
2019-03-20T20:50:51.686Z,133.97
2019-03-20T20:53:20.115Z,127.12
2019-03-20T20:55:48.576Z,131.63
2019-03-20T20:58:17.028Z,136.57
2019-03-20T21:00:45.569Z,125.12
2019-03-20T21:03:14.069Z,134.70
2019-03-20T21:05:42.553Z,132.97
2019-03-20T21:08:13.079Z,113.62
2019-03-20T21:10:43.608Z,124.22
2019-03-20T21:13:12.061Z,126.30
2019-03-20T21:15:59.846Z,133.70
2019-03-20T21:19:05.748Z,127.58
2019-03-20T21:21:34.474Z,135.20
2019-03-20T21:24:24.429Z,123.13
2019-03-20T21:27:07.779Z,131.72
2019-03-20T21:29:57.090Z,121.28
2019-03-20T21:32:52.661Z,119.57
2019-03-20T21:36:09.053Z,134.97
2019-03-20T21:38:37.585Z,126.97
2019-03-20T21:41:49.240Z,131.95
2019-03-20T21:44:23.775Z,117.87
2019-03-20T21:47:04.171Z,123.35
2019-03-20T21:49:32.627Z,124.80
2019-03-20T21:52:01.085Z,126.92
2019-03-20T21:55:06.007Z,127.17
2019-03-20T21:57:37.631Z,122.55
2019-03-20T22:00:31.475Z,133.18
2019-03-20T22:03:00.135Z,137.77
2019-03-20T22:05:32.154Z,132.15
2019-03-20T22:08:00.748Z,116.60
2019-03-20T22:10:48.621Z,127.02
2019-03-20T22:13:29.213Z,128.07
2019-03-20T22:16:25.774Z,132.07
2019-03-20T22:19:14.575Z,136.50
2019-03-20T22:22:08.825Z,140.25
2019-03-20T22:25:01.438Z,124.42
2019-03-20T22:28:06.997Z,135.52
2019-03-20T22:30:35.452Z,129.57
2019-03-20T22:33:40.079Z,142.60
2019-03-20T22:36:08.510Z,143.72
2019-03-20T22:39:08.933Z,135.93
2019-03-20T22:41:49.262Z,142.60
2019-03-20T22:44:18.113Z,136.45
2019-03-20T22:47:08.960Z,138.65
2019-03-20T22:50:01.464Z,131.03
2019-03-20T22:52:47.632Z,143.32
2019-03-20T22:55:30.572Z,142.55
2019-03-20T22:58:18.554Z,145.97
2019-03-20T23:00:50.165Z,133.30
2019-03-20T23:03:36.530Z,142.13
2019-03-20T23:06:06.467Z,138.03
2019-03-20T23:08:34.983Z,138.03
2019-03-20T23:11:03.690Z,133.55
2019-03-20T23:13:41.146Z,147.87
2019-03-20T23:16:03.275Z,134.05
2019-03-20T23:18:31.789Z,135.25
2019-03-20T23:21:00.255Z,135.78
2019-03-20T23:23:28.853Z,139.12
2019-03-20T23:25:58.828Z,137.95
2019-03-20T23:28:27.410Z,154.00
2019-03-20T23:30:56.065Z,142.05
2019-03-20T23:33:24.689Z,130.75
2019-03-20T23:35:56.680Z,149.50
2019-03-20T23:38:25.307Z,151.00
2019-03-20T23:40:53.742Z,146.32
2019-03-20T23:43:22.186Z,149.77
2019-03-20T23:45:50.802Z,153.80
2019-03-20T23:48:22.443Z,143.50
2019-03-20T23:50:54.061Z,149.95
2019-03-20T23:53:22.569Z,152.68
2019-03-20T23:55:51.006Z,151.90
2019-03-20T23:58:19.463Z,152.05
